Time;durP1;ratioP1;P1;durP2;ratioP2;P2;SDS_P1;SDS_P2;PMS_P1;PMS_P2;Temp;Humidity;BMP_temperature;BMP_pressure;BME280_temperature;BME280_humidity;BME280_pressure;Samples;Min_cycle;Max_cycle;Signal;HPM_P1;HPM_P2
2022/12/08 00:01:59;;;;;;;;;;;5.10;67.30;;;-0.14;100.00;95076.06;4954233;28;19920;-50
2022/12/08 00:04:25;;;;;;;;;;;5.10;67.40;;;-0.15;100.00;95076.31;4967201;28;19968;-49
2022/12/08 00:09:40;;;;;;;;;;;5.10;67.50;;;-0.20;100.00;95068.25;4990225;28;20339;-51
2022/12/08 00:12:15;;;;;;;;;;;5.10;67.50;;;-0.16;100.00;95065.00;4974212;28;19910;-51
2022/12/08 00:14:46;;;;;;;;;;;5.10;67.50;;;-0.19;100.00;95068.03;4992898;28;20008;-50
2022/12/08 00:17:15;;;;;;;;;;;5.10;67.50;;;-0.16;100.00;95062.38;4991132;28;19913;-50
2022/12/08 00:19:42;;;;;;;;;;;5.10;67.50;;;-0.17;100.00;95062.59;4982511;28;20380;-49
2022/12/08 00:22:13;;;;;;;;;;;5.10;67.50;;;-0.19;100.00;95062.00;4984306;28;19951;-49
2022/12/08 00:24:43;;;;;;;;;;;5.10;67.50;;;-0.20;100.00;95055.19;4976292;28;19909;-50
2022/12/08 00:27:12;;;;;;;;;;;5.10;67.50;;;-0.19;100.00;95054.16;4991516;28;19913;-50
2022/12/08 00:29:44;;;;;;;;;;;5.10;67.50;;;-0.18;100.00;95047.94;4957764;28;19920;-50
2022/12/08 00:32:13;;;;;;;;;;;5.00;67.50;;;-0.19;100.00;95048.91;4981303;28;19910;-53
2022/12/08 00:34:38;;;;;;;;;;;5.00;67.50;;;-0.20;100.00;95058.59;4988785;28;19924;-49
2022/12/08 00:37:05;;;;;;;;;;;5.10;67.60;;;-0.28;100.00;95051.00;4973944;28;19910;-49
2022/12/08 00:39:36;;;;;;;;;;;5.00;67.50;;;-0.30;100.00;95045.97;4988035;28;20266;-49
2022/12/08 00:42:11;;;;;;;;;;;5.00;67.40;;;-0.30;100.00;95038.09;4986160;28;20269;-52
2022/12/08 00:44:39;;;;;;;;;;;5.00;67.50;;;-0.28;100.00;95043.94;4975562;28;19915;-50
2022/12/08 00:47:05;;;;;;;;;;;5.00;67.50;;;-0.32;100.00;95047.97;4992181;28;19917;-51
2022/12/08 00:49:31;;;;;;;;;;;5.00;67.60;;;-0.33;100.00;95043.75;4973540;28;19964;-50
2022/12/08 00:51:57;;;;;;;;;;;5.00;67.50;;;-0.31;100.00;95044.38;4983106;28;20398;-49
2022/12/08 00:54:23;;;;;;;;;;;5.00;67.60;;;-0.28;100.00;95043.94;4963157;28;20376;-49
2022/12/08 00:56:49;;;;;;;;;;;5.00;67.60;;;-0.29;100.00;95039.69;4969396;28;19909;-49
2022/12/08 00:59:21;;;;;;;;;;;5.00;67.60;;;-0.27;100.00;95039.50;4973304;28;19910;-49
2022/12/08 01:01:47;;;;;;;;;;;5.00;67.60;;;-0.26;100.00;95038.50;4980303;28;19917;-50
2022/12/08 01:04:17;;;;;;;;;;;5.00;67.60;;;-0.28;100.00;95041.31;4973141;28;20380;-49
2022/12/08 01:06:46;;;;;;;;;;;5.00;67.60;;;-0.32;100.00;95034.88;4992444;28;19955;-49
2022/12/08 01:09:15;;;;;;;;;;;5.00;67.50;;;-0.29;100.00;95033.66;4987527;28;19914;-49
2022/12/08 01:11:43;;;;;;;;;;;5.00;67.60;;;-0.31;100.00;95036.50;4968771;28;20411;-54
2022/12/08 01:14:09;;;;;;;;;;;5.00;67.60;;;-0.30;100.00;95039.94;4991986;28;20019;-49
2022/12/08 01:16:36;;;;;;;;;;;5.00;67.50;;;-0.28;100.00;95035.28;4991516;28;20012;-52
2022/12/08 01:19:04;;;;;;;;;;;5.00;67.60;;;-0.27;100.00;95042.94;4992665;28;19910;-49
2022/12/08 01:21:30;;;;;;;;;;;5.00;67.50;;;-0.32;100.00;95034.88;4992814;28;20280;-49
2022/12/08 01:24:03;;;;;;;;;;;5.00;67.60;;;-0.32;100.00;95031.47;4974803;28;19909;-49
2022/12/08 01:26:29;;;;;;;;;;;5.00;67.50;;;-0.29;100.00;95036.28;4975639;28;19913;-49
2022/12/08 01:28:55;;;;;;;;;;;5.00;67.60;;;-0.29;100.00;95037.09;4991105;28;20641;-49
2022/12/08 01:31:22;;;;;;;;;;;5.00;67.60;;;-0.29;100.00;95041.53;4993331;28;19910;-49
2022/12/08 01:33:49;;;;;;;;;;;5.00;67.60;;;-0.32;100.00;95034.88;4990933;28;19913;-49
2022/12/08 01:36:26;;;;;;;;;;;5.00;67.60;;;-0.37;100.00;95039.16;4991756;28;20446;-52
2022/12/08 01:38:56;;;;;;;;;;;5.00;67.60;;;-0.36;100.00;95038.16;4992779;28;19936;-51
2022/12/08 01:41:27;;;;;;;;;;;4.90;67.60;;;-0.32;100.00;95031.47;4975848;28;19909;-51
2022/12/08 01:44:14;;;;;;;;;;;4.90;67.60;;;-0.32;100.00;95028.84;4975048;28;19913;-49
2022/12/08 01:46:43;;;;;;;;;;;4.90;67.60;;;-0.32;100.00;95029.66;4989254;28;20018;-49
2022/12/08 01:49:44;;;;;;;;;;;4.90;67.70;;;-0.36;100.00;95025.84;4973713;28;19960;-51
2022/12/08 01:52:52;;;;;;;;;;;4.90;67.70;;;-0.35;100.00;95027.44;4902072;28;19917;-49
2022/12/08 01:55:45;;;;;;;;;;;4.90;67.80;;;-0.34;100.00;95023.03;4913714;29;19970;-49
2022/12/08 01:58:50;;;;;;;;;;;4.90;67.70;;;-0.35;100.00;95024.03;4972217;28;19918;-52
2022/12/08 02:01:23;;;;;;;;;;;4.90;67.80;;;-0.40;100.00;95016.84;4916702;29;19910;-54
2022/12/08 02:04:03;;;;;;;;;;;4.90;67.80;;;-0.42;100.00;95012.81;4982429;28;20323;-53
2022/12/08 02:06:38;;;;;;;;;;;4.90;67.80;;;-0.39;100.00;95015.81;4975639;28;19917;-51
2022/12/08 02:09:05;;;;;;;;;;;4.80;67.70;;;-0.37;100.00;95011.19;4991649;28;19956;-54
2022/12/08 02:11:34;;;;;;;;;;;4.90;67.80;;;-0.36;100.00;95015.38;4991598;28;19952;-52
2022/12/08 02:14:07;;;;;;;;;;;4.90;67.80;;;-0.39;100.00;95009.78;4991168;28;20376;-50
2022/12/08 02:17:39;;;;;;;;;;;4.90;67.80;;;-0.37;100.00;95005.94;4991859;28;19909;-52
2022/12/08 02:20:59;;;;;;;;;;;4.90;67.80;;;-0.36;100.00;94999.69;4992444;28;20000;-51
2022/12/08 02:23:36;;;;;;;;;;;4.90;67.90;;;-0.33;100.00;94995.84;4966870;28;20252;-49
2022/12/08 02:26:44;;;;;;;;;;;4.90;67.90;;;-0.35;100.00;94984.78;4985863;28;19913;-51
2022/12/08 02:29:52;;;;;;;;;;;4.90;67.90;;;-0.35;100.00;94984.78;4989377;28;20368;-49
2022/12/08 02:32:39;;;;;;;;;;;4.90;67.90;;;-0.40;100.00;94979.41;4982028;28;19917;-50
2022/12/08 02:35:22;;;;;;;;;;;4.90;67.90;;;-0.39;100.00;94983.59;4985581;28;20407;-51
2022/12/08 02:38:05;;;;;;;;;;;4.90;67.80;;;-0.42;100.00;94981.41;4980631;28;20004;-53
2022/12/08 02:40:41;;;;;;;;;;;4.90;67.80;;;-0.41;100.00;94981.19;4973549;28;20007;-51
2022/12/08 02:43:26;;;;;;;;;;;4.90;67.80;;;-0.42;100.00;94976.19;4977651;28;19916;-50
2022/12/08 02:46:04;;;;;;;;;;;4.90;67.90;;;-0.42;100.00;94978.78;4981115;28;19917;-52
2022/12/08 02:48:32;;;;;;;;;;;4.90;67.70;;;-0.42;100.00;94974.34;4973964;28;19952;-49
2022/12/08 02:50:58;;;;;;;;;;;4.80;67.70;;;-0.40;100.00;94976.78;4973098;28;19913;-48
2022/12/08 02:53:29;;;;;;;;;;;4.80;67.70;;;-0.40;100.00;94971.53;4986909;28;19917;-49
2022/12/08 02:56:33;;;;;;;;;;;4.80;67.70;;;-0.40;100.00;94963.69;4982777;28;19924;-50
2022/12/08 03:00:06;;;;;;;;;;;4.80;67.80;;;-0.43;100.00;94959.69;4968800;28;19913;-49
2022/12/08 03:03:22;;;;;;;;;;;4.80;67.80;;;-0.44;100.00;94955.44;4965488;28;19914;-51
2022/12/08 03:06:29;;;;;;;;;;;4.80;67.90;;;-0.44;100.00;94950.19;4984618;28;19917;-53
2022/12/08 03:09:40;;;;;;;;;;;4.80;67.90;;;-0.41;100.00;94951.59;4965053;28;20447;-49
2022/12/08 03:12:48;;;;;;;;;;;4.80;67.90;;;-0.44;100.00;94950.19;4976065;28;19909;-49
2022/12/08 03:15:32;;;;;;;;;;;4.80;67.90;;;-0.42;100.00;94945.56;4962757;28;19909;-49
2022/12/08 03:17:59;;;;;;;;;;;4.80;68.00;;;-0.42;100.00;94950.81;4958077;28;20284;-49
2022/12/08 03:20:28;;;;;;;;;;;4.80;68.00;;;-0.45;100.00;94943.38;4978644;28;20450;-49
2022/12/08 03:22:59;;;;;;;;;;;4.80;68.00;;;-0.45;100.00;94938.13;4988627;28;19917;-51
2022/12/08 03:25:36;;;;;;;;;;;4.80;67.90;;;-0.44;100.00;94934.50;4973624;28;19909;-51
2022/12/08 03:28:06;;;;;;;;;;;4.80;67.90;;;-0.44;100.00;94934.50;4980361;28;19913;-49
2022/12/08 03:30:40;;;;;;;;;;;4.80;67.90;;;-0.44;100.00;94936.31;4960909;28;19916;-50
2022/12/08 03:33:23;;;;;;;;;;;4.80;67.90;;;-0.44;100.00;94931.88;4988557;28;19959;-49
2022/12/08 03:35:50;;;;;;;;;;;4.80;67.90;;;-0.41;100.00;94923.63;4958190;28;20265;-49
2022/12/08 03:38:22;;;;;;;;;;;4.80;67.90;;;-0.41;100.00;94914.97;4980491;28;19967;-48
2022/12/08 03:43:38;;;;;;;;;;;4.90;67.90;;;-0.38;100.00;94914.53;4978208;28;19933;-52
2022/12/08 03:46:06;;;;;;;;;;;4.90;67.90;;;-0.37;100.00;94918.78;4989915;28;19913;-49
2022/12/08 03:48:35;;;;;;;;;;;4.90;67.90;;;-0.42;100.00;94910.75;4972194;28;20392;-49
2022/12/08 03:51:04;;;;;;;;;;;4.90;67.90;;;-0.47;100.00;94909.59;4986574;28;19940;-49
2022/12/08 03:53:29;;;;;;;;;;;4.90;67.90;;;-0.47;100.00;94900.91;4993225;28;19910;-50
2022/12/08 03:55:55;;;;;;;;;;;4.90;67.80;;;-0.46;100.00;94905.16;4982813;28;20292;-50
2022/12/08 03:58:21;;;;;;;;;;;4.90;67.80;;;-0.42;100.00;94898.47;4993169;28;19916;-49
2022/12/08 04:00:47;;;;;;;;;;;4.90;67.90;;;-0.40;100.00;94903.50;4990108;28;20317;-51
2022/12/08 04:03:13;;;;;;;;;;;4.90;67.90;;;-0.42;100.00;94902.91;4985047;28;19928;-49
2022/12/08 04:05:38;;;;;;;;;;;4.90;67.90;;;-0.41;100.00;94896.66;4989827;28;19959;-49
2022/12/08 04:08:04;;;;;;;;;;;4.90;67.80;;;-0.39;100.00;94894.63;4985892;28;19909;-49
2022/12/08 04:10:42;;;;;;;;;;;4.90;67.80;;;-0.37;100.00;94892.63;4991021;28;19924;-50
2022/12/08 04:13:07;;;;;;;;;;;4.90;67.90;;;-0.39;100.00;94887.56;4979805;28;20020;-49
2022/12/08 04:15:33;;;;;;;;;;;4.90;67.90;;;-0.44;100.00;94889.22;4983614;28;20012;-50
2022/12/08 04:18:08;;;;;;;;;;;4.90;67.90;;;-0.44;100.00;94884.78;4975726;28;19959;-52
2022/12/08 04:20:40;;;;;;;;;;;4.90;67.90;;;-0.41;100.00;94883.56;4979799;28;20324;-50
2022/12/08 04:23:08;;;;;;;;;;;4.80;67.70;;;-0.41;100.00;94878.34;4975148;28;19913;-50
2022/12/08 04:25:35;;;;;;;;;;;4.80;67.70;;;-0.45;100.00;94891.03;4967887;28;19971;-48
2022/12/08 04:28:03;;;;;;;;;;;4.80;67.80;;;-0.43;100.00;94877.75;4990782;28;19921;-52
2022/12/08 04:30:30;;;;;;;;;;;4.80;67.80;;;-0.44;100.00;94879.56;4992346;28;19964;-49
2022/12/08 04:32:56;;;;;;;;;;;4.80;67.90;;;-0.43;100.00;94883.00;4989938;28;20259;-55
2022/12/08 04:35:22;;;;;;;;;;;4.80;68.00;;;-0.42;100.00;94880.16;4988188;23;19925;-53
2022/12/08 04:37:54;;;;;;;;;;;4.80;68.00;;;-0.43;100.00;94880.38;4994124;28;19923;-53
2022/12/08 04:40:26;;;;;;;;;;;4.70;67.90;;;-0.44;100.00;94876.94;4987248;28;19917;-53
2022/12/08 04:42:52;;;;;;;;;;;4.70;68.00;;;-0.47;100.00;94872.94;4972740;28;19915;-52
2022/12/08 04:45:20;;;;;;;;;;;4.70;68.00;;;-0.49;100.00;94876.78;4975934;28;20376;-50
2022/12/08 04:47:46;;;;;;;;;;;4.70;68.00;;;-0.49;100.00;94872.34;4968880;28;19914;-57
2022/12/08 04:50:20;;;;;;;;;;;4.70;68.00;;;-0.48;100.00;94881.00;4955455;28;20402;-53
2022/12/08 04:52:49;;;;;;;;;;;4.70;68.10;;;-0.48;100.00;94875.75;4962747;28;19910;-55
2022/12/08 04:55:21;;;;;;;;;;;4.80;68.20;;;-0.47;100.00;94882.59;4967939;28;20303;-53
2022/12/08 04:57:59;;;;;;;;;;;4.70;68.20;;;-0.51;100.00;94874.38;4988244;28;19960;-54
2022/12/08 05:00:24;;;;;;;;;;;4.80;68.20;;;-0.47;100.00;94879.97;4965397;28;20313;-50
2022/12/08 05:02:50;;;;;;;;;;;4.70;68.20;;;-0.45;100.00;94877.16;4973287;28;19915;-54
2022/12/08 05:05:16;;;;;;;;;;;4.80;68.20;;;-0.49;100.00;94876.78;4982488;28;19960;-53
2022/12/08 05:07:42;;;;;;;;;;;4.80;68.20;;;-0.49;100.00;94872.34;4964608;28;20069;-53
2022/12/08 05:10:08;;;;;;;;;;;4.80;68.20;;;-0.47;100.00;94867.72;4968859;28;19944;-53
2022/12/08 05:12:34;;;;;;;;;;;4.80;68.10;;;-0.45;100.00;94871.94;4963408;28;19909;-53
2022/12/08 05:14:59;;;;;;;;;;;4.80;68.10;;;-0.45;100.00;94874.53;4979757;28;19921;-53
2022/12/08 05:17:25;;;;;;;;;;;4.80;68.10;;;-0.46;100.00;94868.50;4970433;28;19920;-53
2022/12/08 05:19:51;;;;;;;;;;;4.80;68.90;;;-0.44;100.00;94869.09;4957064;28;19913;-58
2022/12/08 05:22:17;;;;;;;;;;;4.80;68.10;;;-0.45;100.00;94871.94;4978967;28;19944;-57
2022/12/08 05:24:48;;;;;;;;;;;4.80;68.20;;;-0.47;100.00;94869.50;4987681;28;19924;-54
2022/12/08 05:27:14;;;;;;;;;;;4.80;68.10;;;-0.48;100.00;94868.72;4954168;28;19913;-54
2022/12/08 05:29:43;;;;;;;;;;;4.80;68.10;;;-0.47;100.00;94877.34;4941457;28;20285;-55
2022/12/08 05:32:09;;;;;;;;;;;4.80;68.10;;;-0.52;100.00;94866.75;4982085;28;19948;-51
2022/12/08 05:34:35;;;;;;;;;;;4.80;68.10;;;-0.48;100.00;94865.31;4987239;28;20102;-54
2022/12/08 05:37:00;;;;;;;;;;;4.80;68.00;;;-0.47;100.00;94869.50;4960269;28;19921;-52
2022/12/08 05:39:26;;;;;;;;;;;4.80;68.00;;;-0.47;100.00;94867.72;4980634;28;19925;-56
2022/12/08 05:41:55;;;;;;;;;;;4.80;68.00;;;-0.48;100.00;94863.47;4977662;28;19913;-55
2022/12/08 05:44:24;;;;;;;;;;;4.80;68.00;;;-0.45;100.00;94866.69;4973365;28;19956;-53
2022/12/08 05:46:56;;;;;;;;;;;4.80;68.00;;;-0.53;100.00;94859.91;4973752;28;19914;-52
2022/12/08 05:49:34;;;;;;;;;;;4.80;68.00;;;-0.54;100.00;94856.47;4991577;28;19915;-56
2022/12/08 05:52:06;;;;;;;;;;;4.80;68.00;;;-0.48;100.00;94855.63;4991966;28;19950;-55
2022/12/08 05:54:35;;;;;;;;;;;4.80;68.00;;;-0.46;100.00;94855.44;4958829;28;19913;-55
2022/12/08 05:57:07;;;;;;;;;;;4.80;68.00;;;-0.44;100.00;94863.84;4975283;28;19951;-54
2022/12/08 05:59:37;;;;;;;;;;;4.80;68.00;;;-0.50;100.00;94851.66;4956697;28;19917;-53
2022/12/08 06:02:09;;;;;;;;;;;4.80;68.00;;;-0.47;100.00;94852.03;4956414;28;19918;-52
2022/12/08 06:04:38;;;;;;;;;;;4.80;67.90;;;-0.48;100.00;94857.44;4975075;28;19957;-52
2022/12/08 06:07:03;;;;;;;;;;;4.80;68.00;;;-0.47;100.00;94856.44;4993420;28;20402;-53
2022/12/08 06:09:29;;;;;;;;;;;4.80;68.00;;;-0.46;100.00;94863.28;4954388;28;19913;-53
2022/12/08 06:11:58;;;;;;;;;;;4.80;68.00;;;-0.42;100.00;94858.41;4982972;28;19913;-53
2022/12/08 06:14:27;;;;;;;;;;;4.80;68.00;;;-0.39;100.00;94865.84;4955903;28;20376;-53
2022/12/08 06:17:00;;;;;;;;;;;4.80;68.00;;;-0.39;100.00;94866.63;4955236;28;20288;-54
2022/12/08 06:19:26;;;;;;;;;;;4.80;68.00;;;-0.40;100.00;94864.25;4992343;28;20292;-53
2022/12/08 06:21:54;;;;;;;;;;;4.80;68.00;;;-0.43;100.00;94873.31;4988899;28;19910;-54
2022/12/08 06:24:23;;;;;;;;;;;4.80;68.00;;;-0.41;100.00;94876.50;4966133;28;20288;-54
2022/12/08 06:26:49;;;;;;;;;;;4.80;67.90;;;-0.40;100.00;94872.91;4975055;28;20004;-52
2022/12/08 06:29:15;;;;;;;;;;;4.80;67.90;;;-0.42;100.00;94869.69;4974627;28;20008;-52
2022/12/08 06:31:40;;;;;;;;;;;4.90;67.90;;;-0.40;100.00;94874.72;4976265;28;20350;-54
2022/12/08 06:34:08;;;;;;;;;;;4.80;67.90;;;-0.38;100.00;94875.28;4959172;28;20256;-53
2022/12/08 06:36:34;;;;;;;;;;;4.80;67.90;;;-0.37;100.00;94876.91;4938299;28;20451;-56
2022/12/08 06:39:00;;;;;;;;;;;4.80;67.90;;;-0.39;100.00;94869.25;4974789;28;19913;-55
2022/12/08 06:41:26;;;;;;;;;;;4.80;67.90;;;-0.42;100.00;94869.69;4989997;28;19921;-53
2022/12/08 06:43:56;;;;;;;;;;;4.90;67.90;;;-0.40;100.00;94862.44;4958488;28;19979;-56
2022/12/08 06:46:22;;;;;;;;;;;4.90;67.90;;;-0.42;100.00;94871.50;4893819;28;22173;-55
2022/12/08 06:48:49;;;;;;;;;;;4.90;67.90;;;-0.42;100.00;94869.69;4940878;28;19909;-54
2022/12/08 06:51:20;;;;;;;;;;;4.90;67.90;;;-0.49;100.00;94877.59;4963879;28;19917;-54
2022/12/08 06:53:46;;;;;;;;;;;4.90;67.90;;;-0.43;100.00;94869.91;4963213;28;19967;-52
2022/12/08 06:56:14;;;;;;;;;;;4.90;67.80;;;-0.44;100.00;94871.69;4980689;28;19913;-54
2022/12/08 06:58:42;;;;;;;;;;;4.90;67.80;;;-0.41;100.00;94873.91;4962751;28;20380;-52
2022/12/08 07:01:13;;;;;;;;;;;4.90;67.80;;;-0.39;100.00;94871.06;4973208;28;19917;-52
2022/12/08 07:03:42;;;;;;;;;;;4.90;68.10;;;-0.37;100.00;94874.28;4954802;28;19917;-53
2022/12/08 07:06:23;;;;;;;;;;;4.90;67.80;;;-0.39;100.00;94866.63;4964756;28;19922;-52
2022/12/08 07:08:50;;;;;;;;;;;4.90;67.80;;;-0.39;100.00;94871.06;4959393;28;20430;-52
2022/12/08 07:11:17;;;;;;;;;;;4.90;67.80;;;-0.36;100.00;94878.50;4974128;28;19909;-51
2022/12/08 07:13:43;;;;;;;;;;;4.90;67.80;;;-0.40;100.00;94872.91;4951268;28;19918;-54
2022/12/08 07:16:11;;;;;;;;;;;4.90;67.70;;;-0.40;100.00;94874.72;4974024;28;19910;-53
2022/12/08 07:18:38;;;;;;;;;;;4.90;67.70;;;-0.40;100.00;94874.72;4961035;28;19953;-55
2022/12/08 07:21:06;;;;;;;;;;;4.90;67.60;;;-0.40;100.00;94874.72;4956814;28;19909;-50
2022/12/08 07:23:33;;;;;;;;;;;4.90;67.80;;;-0.43;100.00;94878.56;4984678;28;19944;-53
2022/12/08 07:26:04;;;;;;;;;;;4.90;67.50;;;-0.40;100.00;94874.72;4977293;28;19916;-53
2022/12/08 07:28:36;;;;;;;;;;;4.90;67.60;;;-0.42;100.00;94880.16;4972253;28;20316;-53
2022/12/08 07:31:02;;;;;;;;;;;5.00;67.60;;;-0.44;100.00;94873.53;4983218;28;19949;-52
2022/12/08 07:33:32;;;;;;;;;;;5.00;67.60;;;-0.40;100.00;94874.72;4964227;28;20005;-54
2022/12/08 07:36:02;;;;;;;;;;;5.00;67.60;;;-0.35;100.00;94874.84;4980889;28;19913;-51
2022/12/08 07:38:37;;;;;;;;;;;5.00;67.60;;;-0.37;100.00;94880.31;4962776;28;20360;-53
2022/12/08 07:41:11;;;;;;;;;;;5.00;67.60;;;-0.34;100.00;94884.34;4979517;28;20004;-54
2022/12/08 07:43:36;;;;;;;;;;;5.00;67.60;;;-0.27;100.00;94877.22;4973394;28;19945;-52
2022/12/08 07:46:05;;;;;;;;;;;5.10;67.60;;;-0.22;100.00;94879.97;4954874;28;19980;-52
2022/12/08 07:48:34;;;;;;;;;;;5.10;67.60;;;-0.18;100.00;94878.56;4979191;28;20008;-53
2022/12/08 07:51:02;;;;;;;;;;;5.20;67.70;;;-0.17;100.00;94877.53;4971008;28;20287;-53
2022/12/08 07:53:28;;;;;;;;;;;5.20;67.60;;;-0.13;100.00;94875.28;4967740;28;19909;-52
2022/12/08 07:55:54;;;;;;;;;;;5.30;67.50;;;-0.13;100.00;94881.31;4962052;28;19916;-53
2022/12/08 07:58:23;;;;;;;;;;;5.30;67.50;;;-0.07;100.00;94862.13;4987966;28;19909;-55
2022/12/08 08:00:49;;;;;;;;;;;5.40;67.40;;;-0.07;100.00;94856.09;4961466;28;19953;-54
2022/12/08 08:03:21;;;;;;;;;;;5.40;67.30;;;-0.06;100.00;94853.28;4989284;28;19941;-55
2022/12/08 08:05:49;;;;;;;;;;;5.50;67.30;;;-0.02;100.00;94856.25;4980619;28;20427;-53
2022/12/08 08:08:16;;;;;;;;;;;5.50;67.30;;;0.03;100.00;94855.59;4991978;28;20284;-55
2022/12/08 08:10:43;;;;;;;;;;;5.60;67.20;;;-0.02;100.00;94862.28;4982242;28;19921;-56
2022/12/08 08:13:09;;;;;;;;;;;5.60;67.20;;;0.04;100.00;94865.06;4955353;28;20020;-53
2022/12/08 08:15:40;;;;;;;;;;;5.70;67.10;;;0.07;100.00;94868.06;4973489;28;20000;-56
2022/12/08 08:18:06;;;;;;;;;;;5.70;67.10;;;0.12;100.00;94865.56;4955476;28;20450;-54
2022/12/08 08:20:32;;;;;;;;;;;5.70;67.00;;;0.14;100.00;94860.94;4981926;28;20379;-56
2022/12/08 08:23:01;;;;;;;;;;;5.80;67.00;;;0.18;100.00;94862.09;4959856;28;19937;-53
2022/12/08 08:25:32;;;;;;;;;;;5.80;67.00;;;0.25;100.00;94862.03;4964362;28;20052;-56
2022/12/08 08:28:01;;;;;;;;;;;5.90;66.90;;;0.30;100.00;94859.56;4968082;28;19984;-51
2022/12/08 08:30:27;;;;;;;;;;;5.90;66.90;;;0.34;100.00;94865.16;4990596;28;19910;-55
2022/12/08 08:32:55;;;;;;;;;;;5.90;66.90;;;0.38;100.00;94863.72;4922615;28;26862;-53
2022/12/08 08:35:20;;;;;;;;;;;5.90;66.90;;;0.42;99.46;94857.81;4976844;28;19936;-55
2022/12/08 08:37:52;;;;;;;;;;;6.00;66.90;;;0.45;99.95;94864.44;4960926;28;19917;-54
2022/12/08 08:40:18;;;;;;;;;;;6.00;66.80;;;0.48;99.19;94858.78;4964880;28;20008;-58
2022/12/08 08:42:46;;;;;;;;;;;6.10;66.80;;;0.50;99.04;94854.09;4976244;28;19977;-56
2022/12/08 08:45:12;;;;;;;;;;;6.10;66.60;;;0.55;98.66;94856.06;4983907;28;19917;-54
2022/12/08 08:47:38;;;;;;;;;;;6.10;66.50;;;0.57;98.21;94859.28;4963357;28;20364;-52
2022/12/08 08:50:04;;;;;;;;;;;6.20;66.60;;;0.58;97.95;94859.06;4993628;28;19917;-56
2022/12/08 08:52:33;;;;;;;;;;;6.20;66.50;;;0.63;98.23;94856.59;4958015;28;19975;-54
2022/12/08 08:55:03;;;;;;;;;;;6.30;66.50;;;0.64;98.77;94858.16;4963350;28;20364;-56
2022/12/08 08:57:28;;;;;;;;;;;6.40;66.50;;;0.70;98.76;94851.25;4978827;28;19909;-57
2022/12/08 08:59:54;;;;;;;;;;;6.40;66.40;;;0.79;97.83;94852.56;4956767;28;19920;-53
2022/12/08 09:02:21;;;;;;;;;;;6.50;66.40;;;0.82;96.97;94852.13;4993125;28;19909;-57
2022/12/08 09:04:47;;;;;;;;;;;6.60;66.30;;;0.83;95.92;94850.28;4990072;28;19941;-55
2022/12/08 09:07:14;;;;;;;;;;;6.60;66.20;;;0.80;95.06;94848.09;4993621;28;20400;-56
2022/12/08 09:09:46;;;;;;;;;;;6.70;66.10;;;0.88;95.54;94853.84;4952612;28;19910;-55
2022/12/08 09:12:15;;;;;;;;;;;6.70;66.00;;;0.97;94.72;94848.28;4956243;28;19921;-57
2022/12/08 09:14:46;;;;;;;;;;;6.80;65.90;;;0.99;93.55;94849.66;4976299;28;19913;-56
2022/12/08 09:17:15;;;;;;;;;;;6.80;65.80;;;1.02;93.50;94851.06;4983454;28;20219;-58
2022/12/08 09:19:44;;;;;;;;;;;6.90;65.80;;;1.02;92.06;94848.44;4975300;28;19916;-55
2022/12/08 09:22:10;;;;;;;;;;;6.90;65.70;;;1.00;91.47;94846.00;4981758;28;19980;-58
2022/12/08 09:24:36;;;;;;;;;;;7.00;65.70;;;1.05;91.53;94848.78;4977199;28;19909;-54
2022/12/08 09:27:01;;;;;;;;;;;7.00;65.60;;;1.16;91.29;94849.84;4983978;28;20566;-55
2022/12/08 09:29:27;;;;;;;;;;;7.00;65.40;;;1.20;89.73;94845.75;4954662;28;19920;-56
2022/12/08 09:31:54;;;;;;;;;;;7.10;65.30;;;1.28;90.68;94840.16;4992059;28;20299;-55
2022/12/08 09:34:21;;;;;;;;;;;7.20;65.30;;;1.35;90.59;94846.13;4993251;28;19916;-56
2022/12/08 09:39:32;;;;;;;;;;;7.30;65.10;;;1.53;90.49;94840.00;4977099;28;19917;-56
2022/12/08 09:42:07;;;;;;;;;;;7.50;65.10;;;1.59;89.53;94846.19;4946448;28;19909;-54
2022/12/08 09:45:01;;;;;;;;;;;7.60;65.00;;;1.65;89.08;94837.41;4943609;28;20389;-55
2022/12/08 09:47:39;;;;;;;;;;;7.70;64.80;;;1.70;88.87;94839.34;4944354;28;19913;-56
2022/12/08 09:50:33;;;;;;;;;;;7.70;64.70;;;1.75;88.93;94836.81;4985798;28;19933;-55
2022/12/08 09:53:03;;;;;;;;;;;7.80;64.50;;;1.78;88.45;94834.53;4987888;28;19910;-55
2022/12/08 09:56:12;;;;;;;;;;;7.90;64.40;;;1.87;88.47;94829.75;4957869;28;19964;-57
2022/12/08 09:58:57;;;;;;;;;;;8.10;64.40;;;1.95;88.17;94820.75;4994321;28;19917;-56
2022/12/08 10:01:31;;;;;;;;;;;8.20;64.20;;;2.05;87.52;94819.13;4956902;28;20019;-55
2022/12/08 10:04:17;;;;;;;;;;;8.30;64.10;;;2.05;87.06;94811.25;4961375;28;19917;-55
2022/12/08 10:06:50;;;;;;;;;;;8.40;64.00;;;2.14;86.97;94814.34;4973115;28;20044;-56
2022/12/08 10:10:05;;;;;;;;;;;8.50;63.80;;;2.28;86.97;94802.53;4971935;28;19948;-56
2022/12/08 10:13:06;;;;;;;;;;;8.80;64.50;;;2.42;85.34;94802.31;4970704;28;19920;-58
2022/12/08 10:15:38;;;;;;;;;;;9.10;63.60;;;2.53;83.88;94791.72;4967945;28;20016;-56
2022/12/08 10:18:19;;;;;;;;;;;9.30;63.40;;;2.61;83.66;94785.31;4961879;28;20012;-58
2022/12/08 10:20:50;;;;;;;;;;;9.40;63.20;;;2.61;83.31;94787.16;4983356;28;19910;-58
2022/12/08 10:23:29;;;;;;;;;;;9.30;63.00;;;2.60;83.51;94782.91;4969207;28;20284;-49
2022/12/08 10:26:05;;;;;;;;;;;9.30;62.90;;;2.58;83.82;94782.38;4984575;28;20678;-49
2022/12/08 10:28:33;;;;;;;;;;;9.20;62.90;;;2.60;83.76;94777.66;4958186;28;19909;-50
2022/12/08 10:30:59;;;;;;;;;;;9.10;62.80;;;2.63;83.79;94772.72;4994426;28;19921;-49
2022/12/08 10:33:34;;;;;;;;;;;9.10;62.80;;;2.75;84.29;94768.22;4994374;28;19914;-50
2022/12/08 10:36:03;;;;;;;;;;;9.40;62.90;;;2.97;83.65;94759.66;4984363;23;19921;-52
2022/12/08 10:38:36;;;;;;;;;;;9.70;62.90;;;3.21;83.66;94760.34;4984667;28;20487;-52
2022/12/08 10:41:10;;;;;;;;;;;10.10;63.00;;;3.52;83.02;94752.94;5001419;28;19949;-51
2022/12/08 10:44:00;;;;;;;;;;;10.40;62.90;;;3.82;81.61;94753.38;4990815;28;20437;-49
2022/12/08 10:46:28;;;;;;;;;;;10.70;62.80;;;3.91;79.83;94751.13;4971803;28;20550;-51
2022/12/08 10:49:23;;;;;;;;;;;10.90;62.60;;;4.06;78.07;94747.91;4973797;28;20331;-51
2022/12/08 10:52:21;;;;;;;;;;;11.10;62.30;;;4.33;76.37;94742.72;4966548;28;20056;-50
2022/12/08 10:54:59;;;;;;;;;;;11.30;61.80;;;4.29;75.72;94744.22;4996186;28;20410;-52
2022/12/08 10:57:24;;;;;;;;;;;11.30;61.50;;;4.17;74.40;94736.47;4985990;28;20262;-50
2022/12/08 10:59:54;;;;;;;;;;;11.20;61.10;;;4.01;75.52;94732.00;4987250;28;19910;-50
2022/12/08 11:02:21;;;;;;;;;;;11.10;60.80;;;4.00;75.19;94731.22;5000910;28;19959;-52
2022/12/08 11:05:03;;;;;;;;;;;11.00;60.60;;;4.02;75.04;94721.25;5003823;28;19910;-53
2022/12/08 11:07:35;;;;;;;;;;;10.90;60.60;;;3.99;75.42;94723.56;4987812;28;19917;-49
2022/12/08 11:10:01;;;;;;;;;;;10.80;60.40;;;3.96;75.57;94722.22;5000152;28;20368;-51
2022/12/08 11:12:29;;;;;;;;;;;10.70;60.40;;;3.82;75.90;94728.84;4985418;28;19924;-50
2022/12/08 11:15:16;;;;;;;;;;;10.70;60.40;;;3.78;75.13;94711.94;4970080;28;19913;-52
2022/12/08 11:17:44;;;;;;;;;;;10.70;60.30;;;3.84;76.30;94711.78;5001749;28;19914;-50
2022/12/08 11:20:22;;;;;;;;;;;10.60;60.20;;;3.89;74.99;94714.50;4982860;28;19910;-49
2022/12/08 11:22:55;;;;;;;;;;;10.60;60.30;;;3.90;73.79;94707.38;4997894;28;20036;-49
2022/12/08 11:25:26;;;;;;;;;;;10.60;60.10;;;3.87;74.83;94695.47;4981358;28;19909;-51
2022/12/08 11:27:57;;;;;;;;;;;10.50;60.00;;;3.87;74.44;94699.97;4989721;28;20555;-54
2022/12/08 11:30:31;;;;;;;;;;;10.50;59.90;;;3.85;74.24;94694.91;4985683;28;20265;-49
2022/12/08 11:33:23;;;;;;;;;;;10.50;60.00;;;3.86;73.68;94691.25;4985460;28;19918;-49
2022/12/08 11:36:10;;;;;;;;;;;10.50;59.90;;;3.88;73.19;94685.72;4990904;28;19923;-51
2022/12/08 11:38:45;;;;;;;;;;;10.50;59.80;;;3.99;72.34;94691.94;4998029;28;19999;-53
2022/12/08 11:41:41;;;;;;;;;;;10.50;59.80;;;4.05;71.85;94689.13;4975270;28;19909;-52
2022/12/08 11:44:39;;;;;;;;;;;10.70;59.80;;;4.13;73.09;94685.25;5008771;28;19912;-49
2022/12/08 11:47:23;;;;;;;;;;;10.80;59.80;;;4.30;71.86;94690.47;5000985;28;19921;-52
2022/12/08 11:50:15;;;;;;;;;;;11.00;59.70;;;4.35;73.61;94687.88;5008779;28;20330;-49
2022/12/08 11:52:49;;;;;;;;;;;11.20;59.60;;;4.56;68.68;94681.00;5004626;28;19999;-50
2022/12/08 11:55:46;;;;;;;;;;;11.50;59.40;;;4.72;68.40;94674.81;4972751;28;20368;-53
2022/12/08 11:58:35;;;;;;;;;;;11.80;59.20;;;4.85;65.83;94682.31;5000033;28;19932;-52